Time;durP1;ratioP1;P1;durP2;ratioP2;P2;SDS_P1;SDS_P2;PMS_P1;PMS_P2;Temp;Humidity;BMP_temperature;BMP_pressure;BME280_temperature;BME280_humidity;BME280_pressure;Samples;Min_cycle;Max_cycle;Signal;HPM_P1;HPM_P2
2021/12/15 00:02:28;;;;;;;45.17;21.77;;;5.80;99.90;;;;;;5019944;28;20627;-92
2021/12/15 00:04:55;;;;;;;42.27;20.43;;;5.80;99.90;;;;;;5019819;28;20213;-91
2021/12/15 00:07:24;;;;;;;47.40;23.17;;;5.80;99.90;;;;;;5019707;28;20193;-91
2021/12/15 00:09:50;;;;;;;44.23;21.63;;;5.80;99.90;;;;;;5020214;28;20197;-92
2021/12/15 00:12:17;;;;;;;48.30;22.07;;;5.80;99.90;;;;;;5020114;28;20208;-91
2021/12/15 00:14:45;;;;;;;38.93;20.43;;;5.80;99.90;;;;;;5020378;28;20185;-91
2021/12/15 00:17:15;;;;;;;37.70;20.13;;;5.80;99.90;;;;;;5021133;28;20189;-91
2021/12/15 00:19:41;;;;;;;42.07;20.33;;;5.80;99.90;;;;;;5019887;28;20206;-92
2021/12/15 00:22:07;;;;;;;40.63;20.57;;;5.80;99.90;;;;;;5019350;28;20689;-91
2021/12/15 00:24:34;;;;;;;41.47;20.60;;;5.70;99.90;;;;;;5019676;28;20297;-91
2021/12/15 00:27:00;;;;;;;39.20;19.17;;;5.70;99.90;;;;;;5019762;28;20199;-92
2021/12/15 00:29:26;;;;;;;42.37;19.63;;;5.70;99.90;;;;;;5019455;28;20208;-92
2021/12/15 00:31:53;;;;;;;35.27;17.57;;;5.80;99.90;;;;;;5019932;28;20175;-91
2021/12/15 00:34:19;;;;;;;39.53;18.83;;;5.80;99.90;;;;;;5019728;28;20210;-91
2021/12/15 00:36:47;;;;;;;38.73;18.83;;;5.80;99.90;;;;;;5019691;28;20267;-91
2021/12/15 00:39:18;;;;;;;38.20;18.90;;;5.80;99.90;;;;;;5019376;28;20214;-92
2021/12/15 00:41:45;;;;;;;36.60;17.60;;;5.80;99.90;;;;;;5019914;28;20265;-92
2021/12/15 00:44:12;;;;;;;38.50;18.87;;;5.80;99.90;;;;;;5018757;28;20742;-91
2021/12/15 00:46:39;;;;;;;37.03;19.07;;;5.80;99.90;;;;;;5018604;28;20188;-91
2021/12/15 00:49:07;;;;;;;39.00;19.17;;;5.80;99.90;;;;;;5018998;28;20198;-92
2021/12/15 00:51:36;;;;;;;36.47;17.93;;;5.80;99.90;;;;;;5019318;28;20178;-91
2021/12/15 00:54:02;;;;;;;32.50;17.63;;;5.80;99.90;;;;;;5018056;28;20185;-91
2021/12/15 00:56:28;;;;;;;36.37;18.13;;;5.80;99.90;;;;;;5019397;28;20182;-92
2021/12/15 00:58:54;;;;;;;36.50;18.13;;;5.90;99.90;;;;;;5019709;28;20201;-92
2021/12/15 01:01:23;;;;;;;34.43;17.33;;;5.90;99.90;;;;;;5019658;28;20188;-91
2021/12/15 01:03:49;;;;;;;35.30;17.63;;;5.90;99.90;;;;;;5020041;28;20171;-91
2021/12/15 01:06:18;;;;;;;34.33;17.40;;;5.90;99.90;;;;;;5020685;28;20179;-91
2021/12/15 01:08:48;;;;;;;32.60;17.80;;;5.90;99.90;;;;;;5020263;28;20201;-91
2021/12/15 01:11:47;;;;;;;34.27;18.10;;;5.90;99.90;;;;;;5019076;28;20541;-92
2021/12/15 01:19:51;;;;;;;28.73;15.47;;;5.90;99.90;;;;;;5035132;28;20288;-91
2021/12/15 01:22:20;;;;;;;31.60;16.00;;;5.90;99.90;;;;;;5019003;28;20190;-92
2021/12/15 01:24:46;;;;;;;30.30;16.50;;;5.90;99.90;;;;;;5018714;28;20281;-92
2021/12/15 01:27:13;;;;;;;31.90;16.30;;;5.90;99.90;;;;;;5019076;28;20208;-92
2021/12/15 01:29:40;;;;;;;30.97;16.00;;;5.90;99.90;;;;;;5018940;28;20191;-91
2021/12/15 01:32:08;;;;;;;33.17;17.93;;;5.90;99.90;;;;;;5018795;28;20213;-92
2021/12/15 01:34:34;;;;;;;32.00;17.27;;;5.90;99.90;;;;;;5018366;28;20204;-91
2021/12/15 01:37:00;;;;;;;32.83;18.10;;;5.90;99.90;;;;;;5018361;28;20581;-92
2021/12/15 01:39:27;;;;;;;31.00;16.80;;;5.90;99.90;;;;;;5017829;28;20221;-92
2021/12/15 01:41:55;;;;;;;31.93;17.43;;;5.90;99.90;;;;;;5018291;28;20178;-91
2021/12/15 01:47:00;;;;;;;31.60;17.63;;;5.90;99.90;;;;;;5034795;28;20224;-91
2021/12/15 01:49:39;;;;;;;29.33;16.63;;;5.90;99.90;;;;;;5017562;28;20211;-92
2021/12/15 01:52:19;;;;;;;31.37;17.00;;;5.90;99.90;;;;;;5018387;28;20202;-92
2021/12/15 01:54:54;;;;;;;33.47;17.50;;;5.90;99.90;;;;;;5018430;28;20182;-91
2021/12/15 01:57:22;;;;;;;31.17;17.67;;;5.90;99.90;;;;;;5018248;28;20234;-92
2021/12/15 01:59:49;;;;;;;34.33;18.53;;;5.90;99.90;;;;;;5017960;28;20202;-92
2021/12/15 02:02:17;;;;;;;34.77;18.47;;;5.90;99.90;;;;;;5017999;28;20195;-92
2021/12/15 02:04:43;;;;;;;34.23;18.53;;;5.90;99.90;;;;;;5017823;28;20198;-92
2021/12/15 02:07:14;;;;;;;35.73;18.47;;;5.90;99.90;;;;;;5018035;28;20246;-92
2021/12/15 02:12:24;;;;;;;34.17;18.40;;;5.90;99.90;;;;;;5034132;28;20167;-92
2021/12/15 02:14:51;;;;;;;34.90;19.40;;;5.90;99.90;;;;;;5018058;28;20265;-91
2021/12/15 02:17:17;;;;;;;36.47;18.83;;;5.90;99.90;;;;;;5017485;28;20224;-92
2021/12/15 02:19:44;;;;;;;36.90;19.33;;;5.90;99.90;;;;;;5017392;28;20580;-92
2021/12/15 02:22:11;;;;;;;37.87;18.90;;;5.90;99.90;;;;;;5017233;28;20179;-92
2021/12/15 02:24:39;;;;;;;32.20;18.80;;;5.90;99.90;;;;;;5017415;28;20209;-91
2021/12/15 02:27:06;;;;;;;34.13;19.13;;;5.90;99.90;;;;;;5017576;28;20266;-92
2021/12/15 02:29:38;;;;;;;36.67;19.83;;;5.90;99.90;;;;;;5016890;28;20201;-91
2021/12/15 02:34:56;;;;;;;39.93;22.10;;;5.90;99.90;;;;;;5033180;28;20178;-92
2021/12/15 02:37:22;;;;;;;40.90;21.50;;;5.90;99.90;;;;;;5033567;28;20340;-91
2021/12/15 02:40:00;;;;;;;38.03;20.53;;;5.90;99.90;;;;;;5017043;28;20214;-91
2021/12/15 02:42:33;;;;;;;38.57;20.97;;;5.90;99.90;;;;;;5017428;28;20173;-91
2021/12/15 02:44:59;;;;;;;36.40;20.03;;;5.90;99.90;;;;;;5016687;28;20212;-92
2021/12/15 02:47:28;;;;;;;40.10;21.63;;;5.90;99.90;;;;;;5016996;28;20177;-92
2021/12/15 02:49:56;;;;;;;40.77;21.53;;;5.90;99.90;;;;;;5016880;28;20295;-92
2021/12/15 02:52:23;;;;;;;38.60;21.37;;;5.90;99.90;;;;;;5016871;28;20182;-92
2021/12/15 02:54:49;;;;;;;37.53;20.40;;;5.80;99.90;;;;;;5017156;28;20177;-92
2021/12/15 02:57:16;;;;;;;39.53;21.37;;;5.90;99.90;;;;;;5017251;28;20193;-92
2021/12/15 03:00:46;;;;;;;36.37;20.67;;;5.90;99.90;;;;;;5016886;28;20316;-92
2021/12/15 03:05:12;;;;;;;39.67;20.87;;;5.90;99.90;;;;;;5033423;28;20226;-91
2021/12/15 03:07:47;;;;;;;38.73;20.43;;;5.90;99.90;;;;;;5016705;28;20167;-92
2021/12/15 03:15:46;;;;;;;39.07;21.90;;;5.80;99.90;;;;;;5034483;28;20599;-92
2021/12/15 03:18:18;;;;;;;37.23;20.97;;;5.80;99.90;;;;;;5018145;28;20260;-91
2021/12/15 03:20:51;;;;;;;37.07;20.57;;;5.80;99.90;;;;;;5016667;28;20181;-91
2021/12/15 03:23:51;;;;;;;38.43;21.03;;;5.80;99.90;;;;;;5016610;28;20178;-92
2021/12/15 03:26:36;;;;;;;39.20;19.70;;;5.80;99.90;;;;;;5016814;28;20252;-92
2021/12/15 03:37:26;;;;;;;43.10;22.33;;;5.80;99.90;;;;;;5032968;28;20172;-92
2021/12/15 03:40:03;;;;;;;51.80;26.23;;;5.80;99.90;;;;;;5015958;28;20216;-92
2021/12/15 03:43:02;;;;;;;39.87;22.03;;;5.80;99.90;;;;;;5016578;28;20166;-92
2021/12/15 03:45:37;;;;;;;41.30;21.60;;;5.80;99.90;;;;;;5016106;28;20288;-91
2021/12/15 03:48:06;;;;;;;42.93;20.57;;;5.70;99.90;;;;;;5016416;28;20200;-92
2021/12/15 03:50:33;;;;;;;41.80;21.77;;;5.60;99.90;;;;;;5016263;28;20671;-92
2021/12/15 03:52:59;;;;;;;43.53;21.83;;;5.60;99.90;;;;;;5016390;28;20181;-91
2021/12/15 03:55:29;;;;;;;43.23;22.40;;;5.60;99.90;;;;;;5016004;28;20193;-91
2021/12/15 03:57:56;;;;;;;43.77;21.47;;;5.60;99.90;;;;;;5016245;28;20186;-92
2021/12/15 04:00:23;;;;;;;40.60;20.87;;;5.60;99.90;;;;;;5016007;28;20201;-91
2021/12/15 04:02:50;;;;;;;38.63;20.00;;;5.60;99.90;;;;;;5016282;28;20273;-91
2021/12/15 04:05:18;;;;;;;41.00;20.70;;;5.60;99.90;;;;;;5015949;28;20207;-91
2021/12/15 04:07:46;;;;;;;37.57;20.67;;;5.60;99.90;;;;;;5016349;28;20190;-92
2021/12/15 04:10:15;;;;;;;40.87;21.63;;;5.60;99.90;;;;;;5015616;28;20225;-92
2021/12/15 04:12:42;;;;;;;38.23;19.80;;;5.70;99.90;;;;;;5015774;28;20230;-92
2021/12/15 04:17:55;;;;;;;43.97;22.00;;;5.70;99.90;;;;;;5032800;28;20179;-92
2021/12/15 04:20:24;;;;;;;38.07;19.70;;;5.70;99.90;;;;;;5016003;28;20294;-91
2021/12/15 04:22:50;;;;;;;41.03;20.57;;;5.70;99.90;;;;;;5016445;28;20267;-91
2021/12/15 04:25:23;;;;;;;39.63;20.83;;;5.70;99.90;;;;;;5015968;28;20213;-91
2021/12/15 04:27:58;;;;;;;42.63;22.40;;;5.70;99.90;;;;;;5016193;28;20182;-91
2021/12/15 04:30:26;;;;;;;45.00;23.30;;;5.70;99.90;;;;;;5017681;28;20208;-91
2021/12/15 04:32:54;;;;;;;42.60;22.63;;;5.70;99.90;;;;;;5019841;28;20189;-92
2021/12/15 04:35:20;;;;;;;44.07;22.57;;;5.70;99.90;;;;;;5019567;28;20185;-91
2021/12/15 04:37:48;;;;;;;43.60;22.63;;;5.60;99.90;;;;;;5019798;28;20251;-92
2021/12/15 04:40:15;;;;;;;47.20;24.27;;;5.70;99.90;;;;;;5019176;28;20221;-92
2021/12/15 04:42:43;;;;;;;48.13;23.80;;;5.60;99.90;;;;;;5016201;28;20181;-91
2021/12/15 04:45:12;;;;;;;40.87;22.03;;;5.60;99.90;;;;;;5025448;28;20202;-92
2021/12/15 04:47:38;;;;;;;37.87;20.23;;;5.60;99.90;;;;;;5036240;28;20208;-92
2021/12/15 04:50:06;;;;;;;40.27;19.93;;;5.60;99.90;;;;;;5019025;28;20197;-92
2021/12/15 04:52:32;;;;;;;42.87;20.93;;;5.70;99.90;;;;;;5019092;28;20193;-92
2021/12/15 04:55:00;;;;;;;35.93;18.97;;;5.70;99.90;;;;;;5018814;28;20181;-92
2021/12/15 04:57:27;;;;;;;37.47;20.43;;;5.70;99.90;;;;;;5019194;28;20697;-92
2021/12/15 04:59:54;;;;;;;37.03;19.80;;;5.70;99.90;;;;;;5018900;28;20252;-92
2021/12/15 05:02:31;;;;;;;33.60;20.40;;;5.70;99.90;;;;;;5018049;28;20284;-92
2021/12/15 05:04:58;;;;;;;34.83;18.93;;;5.70;99.90;;;;;;5018802;28;20246;-92
2021/12/15 05:07:24;;;;;;;34.40;18.20;;;5.70;99.90;;;;;;5018821;28;20182;-92
2021/12/15 05:09:51;;;;;;;34.27;19.27;;;5.70;99.90;;;;;;5018360;28;20201;-92
2021/12/15 05:12:19;;;;;;;40.10;21.43;;;5.70;99.90;;;;;;5018749;28;20213;-92
2021/12/15 05:14:45;;;;;;;38.70;21.13;;;5.70;99.90;;;;;;5018807;28;20256;-92
2021/12/15 05:17:11;;;;;;;37.57;20.47;;;5.70;99.90;;;;;;5018707;28;20193;-92
2021/12/15 05:19:37;;;;;;;38.03;20.53;;;5.70;99.90;;;;;;5018600;28;20206;-92
2021/12/15 05:22:05;;;;;;;39.97;21.37;;;5.70;99.90;;;;;;5018686;28;20189;-92
2021/12/15 05:24:31;;;;;;;39.43;20.80;;;5.70;99.90;;;;;;5018346;28;20209;-92
2021/12/15 05:27:01;;;;;;;39.17;21.23;;;5.70;99.90;;;;;;5018587;28;20186;-92
2021/12/15 05:29:28;;;;;;;40.23;20.93;;;5.70;99.90;;;;;;5017840;28;20670;-92
2021/12/15 05:31:55;;;;;;;39.40;21.03;;;5.70;99.90;;;;;;5018323;28;20221;-91
2021/12/15 05:34:22;;;;;;;39.83;22.77;;;5.70;99.90;;;;;;5018186;28;20183;-92
2021/12/15 05:36:52;;;;;;;37.97;20.90;;;5.70;99.90;;;;;;5017829;28;20181;-92
2021/12/15 05:39:19;;;;;;;35.70;20.37;;;5.70;99.90;;;;;;5017734;28;20313;-92
2021/12/15 05:42:05;;;;;;;33.10;19.13;;;5.70;99.90;;;;;;5017382;28;20249;-92
2021/12/15 05:44:32;;;;;;;32.57;17.57;;;5.60;99.90;;;;;;5034347;28;20212;-91
2021/12/15 05:47:00;;;;;;;37.47;19.90;;;5.70;99.90;;;;;;5017485;28;20244;-92
2021/12/15 05:49:36;;;;;;;33.87;19.97;;;5.70;99.90;;;;;;5017904;28;20228;-91
2021/12/15 05:52:04;;;;;;;37.30;18.87;;;5.70;99.90;;;;;;5018325;28;20209;-91
2021/12/15 05:54:30;;;;;;;33.37;19.03;;;5.70;99.90;;;;;;5018005;28;20193;-92
2021/12/15 05:56:58;;;;;;;29.83;17.70;;;5.70;99.90;;;;;;5017808;28;20190;-92
2021/12/15 05:59:42;;;;;;;31.53;18.40;;;5.70;99.90;;;;;;5018317;28;20210;-91
2021/12/15 06:02:09;;;;;;;32.27;17.47;;;5.70;99.90;;;;;;5017052;28;20183;-91
2021/12/15 06:04:36;;;;;;;27.80;15.60;;;5.60;99.90;;;;;;5017882;28;20202;-91
2021/12/15 06:07:03;;;;;;;27.87;15.07;;;5.70;99.90;;;;;;5019571;28;20178;-92
2021/12/15 06:09:29;;;;;;;24.27;14.70;;;5.70;99.90;;;;;;5017461;28;20205;-91
2021/12/15 06:12:28;;;;;;;16.27;11.17;;;5.70;99.90;;;;;;5017643;28;20573;-90
2021/12/15 06:15:26;;;;;;;16.07;9.70;;;5.70;99.90;;;;;;5034002;28;20189;-90
2021/12/15 06:17:56;;;;;;;11.67;7.73;;;5.70;99.90;;;;;;4997479;28;20205;-90
2021/12/15 06:20:24;;;;;;;10.80;7.47;;;5.70;99.90;;;;;;4996944;28;20763;-90
2021/12/15 06:22:53;;;;;;;9.37;6.50;;;5.70;99.90;;;;;;4997068;28;20190;-90
2021/12/15 06:25:19;;;;;;;10.00;7.37;;;5.70;99.90;;;;;;4997194;28;20214;-90
2021/12/15 06:27:45;;;;;;;10.83;7.57;;;5.70;99.90;;;;;;4997290;28;20248;-90
2021/12/15 06:30:11;;;;;;;8.73;6.63;;;5.70;99.90;;;;;;4996834;28;20297;-90
2021/12/15 06:32:38;;;;;;;11.13;7.43;;;5.60;99.90;;;;;;4996968;28;20213;-90
2021/12/15 06:35:05;;;;;;;10.00;7.47;;;5.60;99.90;;;;;;4996720;28;20206;-90
2021/12/15 06:37:32;;;;;;;8.90;6.50;;;5.60;99.90;;;;;;4996955;28;20266;-90
2021/12/15 06:39:58;;;;;;;10.53;6.60;;;5.60;99.90;;;;;;4997171;28;20226;-90
2021/12/15 06:42:24;;;;;;;10.43;7.10;;;5.60;99.90;;;;;;4997333;28;20193;-89
2021/12/15 06:44:50;;;;;;;9.67;7.00;;;5.60;99.90;;;;;;4997060;28;20210;-90
2021/12/15 06:47:39;;;;;;;10.43;7.17;;;5.60;99.90;;;;;;4997327;28;20183;-90
2021/12/15 06:58:23;;;;;;;10.83;8.17;;;5.70;99.90;;;;;;5013391;28;20175;-90
2021/12/15 07:00:54;;;;;;;11.57;8.40;;;5.70;99.90;;;;;;4997010;28;20197;-90
2021/12/15 07:03:21;;;;;;;13.73;9.67;;;5.70;99.90;;;;;;4997267;28;20206;-90
2021/12/15 07:05:47;;;;;;;14.63;9.97;;;5.70;99.90;;;;;;4996825;28;20224;-90
2021/12/15 07:08:14;;;;;;;14.73;10.73;;;5.70;99.90;;;;;;5013591;28;20263;-90
2021/12/15 07:10:48;;;;;;;13.73;9.90;;;5.60;99.90;;;;;;5032929;28;20182;-90
2021/12/15 07:13:16;;;;;;;13.73;10.13;;;5.70;99.90;;;;;;5032843;28;20240;-90
2021/12/15 07:15:44;;;;;;;16.37;10.97;;;5.70;99.90;;;;;;5032109;28;20203;-90
2021/12/15 07:18:12;;;;;;;16.40;11.37;;;5.70;99.90;;;;;;5032342;28;20182;-90
2021/12/15 07:20:44;;;;;;;16.03;11.33;;;5.70;99.90;;;;;;5032328;28;20202;-90
2021/12/15 07:23:14;;;;;;;15.97;11.13;;;5.60;99.90;;;;;;5016090;28;20178;-90
2021/12/15 07:25:42;;;;;;;16.77;11.70;;;5.70;99.90;;;;;;5029639;28;20204;-90
2021/12/15 07:28:09;;;;;;;17.10;12.13;;;5.60;99.90;;;;;;5035034;28;20196;-90
2021/12/15 07:30:37;;;;;;;15.43;12.23;;;5.60;99.90;;;;;;5035088;28;20197;-90
2021/12/15 07:33:37;;;;;;;17.43;12.07;;;5.60;99.90;;;;;;5035331;28;20182;-90
2021/12/15 07:36:21;;;;;;;17.23;11.67;;;5.60;99.90;;;;;;5035316;28;20205;-90
2021/12/15 07:38:47;;;;;;;17.40;11.67;;;5.60;99.90;;;;;;5035428;28;20209;-90
2021/12/15 07:41:30;;;;;;;14.93;10.83;;;5.60;99.90;;;;;;5027245;28;20181;-93
2021/12/15 07:44:02;;;;;;;15.40;11.03;;;5.60;99.90;;;;;;5032466;28;20205;-90
2021/12/15 07:46:29;;;;;;;14.30;9.90;;;5.60;99.90;;;;;;5032417;28;20201;-90
2021/12/15 07:48:56;;;;;;;14.60;10.23;;;5.60;99.90;;;;;;5011786;28;20203;-90
2021/12/15 07:51:24;;;;;;;14.17;9.97;;;5.60;99.90;;;;;;5028048;28;20193;-90
2021/12/15 07:53:50;;;;;;;14.83;10.10;;;5.60;99.90;;;;;;5031750;28;20174;-90
2021/12/15 07:56:18;;;;;;;12.50;9.33;;;5.60;99.90;;;;;;5035399;28;20182;-91
2021/12/15 07:58:44;;;;;;;14.80;10.97;;;5.60;99.90;;;;;;5024621;28;20203;-90
2021/12/15 08:01:11;;;;;;;16.27;11.40;;;5.60;99.90;;;;;;5017009;28;20186;-90
2021/12/15 08:03:39;;;;;;;14.87;10.47;;;5.70;99.90;;;;;;5045639;28;20180;-91
2021/12/15 08:06:06;;;;;;;16.43;11.93;;;5.70;99.90;;;;;;5039495;28;20273;-91
2021/12/15 08:08:32;;;;;;;18.93;13.80;;;5.70;99.90;;;;;;5039044;28;20184;-91
2021/12/15 08:10:59;;;;;;;16.43;12.17;;;5.70;99.90;;;;;;5039374;28;20184;-91
2021/12/15 08:13:28;;;;;;;16.53;12.10;;;5.60;99.90;;;;;;5039217;28;20260;-91
2021/12/15 08:15:54;;;;;;;13.97;10.93;;;5.60;99.90;;;;;;5039260;28;20215;-91
2021/12/15 08:18:20;;;;;;;16.03;11.57;;;5.60;99.90;;;;;;5026300;28;20179;-91
2021/12/15 08:20:47;;;;;;;16.77;11.90;;;5.60;99.90;;;;;;5033307;28;20183;-91
2021/12/15 08:23:13;;;;;;;16.30;12.13;;;5.60;99.90;;;;;;5018679;28;20186;-91
2021/12/15 08:25:40;;;;;;;15.80;12.27;;;5.70;99.90;;;;;;5018419;28;20549;-91
2021/12/15 08:31:27;;;;;;;17.13;13.33;;;5.70;99.90;;;;;;5021632;28;20186;-91
2021/12/15 08:33:53;;;;;;;16.33;11.83;;;5.70;99.90;;;;;;5019031;28;20216;-91
2021/12/15 08:36:23;;;;;;;14.73;11.07;;;5.70;99.90;;;;;;5027942;28;20280;-91
2021/12/15 08:38:54;;;;;;;13.83;9.67;;;5.70;99.90;;;;;;5014754;28;20203;-91
2021/12/15 08:41:24;;;;;;;12.47;9.07;;;5.70;99.90;;;;;;5015583;28;20186;-91
2021/12/15 08:43:51;;;;;;;10.50;7.97;;;5.70;99.90;;;;;;5015284;28;20212;-91
2021/12/15 08:46:22;;;;;;;9.27;7.50;;;5.70;99.90;;;;;;5015350;28;20206;-91
2021/12/15 08:48:49;;;;;;;11.03;8.30;;;5.70;99.90;;;;;;5015052;28;20199;-91
2021/12/15 08:51:17;;;;;;;10.70;7.60;;;5.70;99.90;;;;;;5015476;28;20182;-91
2021/12/15 08:53:46;;;;;;;9.67;7.47;;;5.70;99.90;;;;;;5015113;28;20684;-91
2021/12/15 08:56:13;;;;;;;8.23;6.87;;;5.70;99.90;;;;;;5015094;28;20285;-91
2021/12/15 08:58:39;;;;;;;10.53;7.83;;;5.60;99.90;;;;;;5017751;28;20203;-91
2021/12/15 09:05:22;;;;;;;9.40;7.07;;;5.70;99.90;;;;;;5016074;28;20289;-91
2021/12/15 09:07:57;;;;;;;7.50;6.50;;;5.70;99.90;;;;;;5023688;28;20174;-91
2021/12/15 09:10:27;;;;;;;7.60;6.80;;;5.70;99.90;;;;;;5014880;28;20201;-91
2021/12/15 09:12:53;;;;;;;8.10;6.40;;;5.70;99.90;;;;;;5014928;28;20180;-91
2021/12/15 09:15:19;;;;;;;8.83;6.23;;;5.70;99.90;;;;;;5013880;28;20192;-91
2021/12/15 09:17:48;;;;;;;8.13;5.90;;;5.70;99.90;;;;;;5014351;28;20197;-91
2021/12/15 09:20:20;;;;;;;8.13;6.17;;;5.70;99.90;;;;;;5014712;28;20281;-91
2021/12/15 09:22:52;;;;;;;7.97;6.10;;;5.70;99.90;;;;;;5030540;28;20206;-91
2021/12/15 09:25:20;;;;;;;8.20;6.27;;;5.70;99.90;;;;;;4999556;28;20211;-91
2021/12/15 09:28:02;;;;;;;7.07;5.90;;;5.70;99.90;;;;;;5033158;28;20194;-91
2021/12/15 09:30:33;;;;;;;7.20;5.43;;;5.70;99.90;;;;;;5016383;28;20207;-91
2021/12/15 09:33:00;;;;;;;6.70;4.90;;;5.70;99.90;;;;;;5018495;28;20182;-79
2021/12/15 09:35:31;;;;;;;7.70;5.47;;;5.70;99.90;;;;;;5018160;28;20189;-91
2021/12/15 09:38:03;;;;;;;8.27;5.77;;;5.70;99.90;;;;;;5020296;28;20273;-91
2021/12/15 09:40:29;;;;;;;7.80;6.20;;;5.70;99.90;;;;;;5018292;28;20233;-91
2021/12/15 09:42:56;;;;;;;7.03;5.50;;;5.70;99.90;;;;;;5033564;28;20277;-91
2021/12/15 09:45:48;;;;;;;6.33;5.07;;;5.70;99.90;;;;;;5022737;28;20211;-91
2021/12/15 10:10:36;;;;;;;5.80;4.30;;;5.70;99.90;;;;;;5026660;28;20172;-91
2021/12/15 10:11:11;;;;;;;5.47;4.80;;;5.70;99.90;;;;;;5033300;28;20220;-91
2021/12/15 10:18:55;;;;;;;5.53;4.13;;;5.60;99.90;;;;;;5033135;28;20224;-91
2021/12/15 10:21:33;;;;;;;5.10;3.60;;;5.60;99.90;;;;;;5033694;28;20195;-91
2021/12/15 10:23:59;;;;;;;6.60;4.37;;;5.60;99.90;;;;;;5033798;28;20185;-91
2021/12/15 10:26:29;;;;;;;10.27;5.80;;;5.60;99.90;;;;;;5031018;28;20375;-91
2021/12/15 10:28:56;;;;;;;6.97;4.20;;;5.50;99.90;;;;;;5035233;28;20219;-91
2021/12/15 10:31:27;;;;;;;5.07;4.07;;;5.50;99.90;;;;;;5033119;28;20181;-91
2021/12/15 10:34:03;;;;;;;4.93;3.73;;;5.50;99.90;;;;;;5046827;28;20187;-91
2021/12/15 10:36:34;;;;;;;4.00;3.57;;;5.50;99.90;;;;;;5016518;28;20206;-91
2021/12/15 10:39:07;;;;;;;3.43;3.00;;;5.50;99.90;;;;;;5015874;28;20238;-90
2021/12/15 10:41:37;;;;;;;5.87;3.87;;;5.50;99.90;;;;;;5021447;28;20169;-87
2021/12/15 10:44:14;;;;;;;5.03;3.90;;;5.50;99.90;;;;;;5038528;28;20176;-91
2021/12/15 10:46:49;;;;;;;4.87;3.77;;;5.60;99.90;;;;;;5033057;28;20174;-90
2021/12/15 10:49:19;;;;;;;4.40;3.57;;;5.60;99.90;;;;;;5028978;28;20643;-91
2021/12/15 10:51:51;;;;;;;4.40;3.33;;;5.60;99.90;;;;;;5013492;28;20215;-90
2021/12/15 10:54:29;;;;;;;4.20;3.00;;;5.60;99.90;;;;;;5032374;28;20689;-90
2021/12/15 10:56:57;;;;;;;5.73;3.67;;;5.60;99.90;;;;;;5016205;28;20255;-90
2021/12/15 10:59:30;;;;;;;5.10;3.50;;;5.60;99.90;;;;;;5015849;28;20209;-90
2021/12/15 11:02:25;;;;;;;4.80;3.10;;;5.60;99.90;;;;;;5015500;28;20174;-89
2021/12/15 11:04:50;;;;;;;4.40;3.40;;;5.60;99.90;;;;;;5015360;28;20218;-90
2021/12/15 11:07:35;;;;;;;4.47;3.40;;;5.70;99.90;;;;;;5032678;28;20208;-90
2021/12/15 11:10:08;;;;;;;4.57;3.13;;;5.60;99.90;;;;;;5015501;28;20196;-90
2021/12/15 11:12:41;;;;;;;2.90;2.60;;;5.60;99.90;;;;;;5032070;28;20205;-90
2021/12/15 11:15:12;;;;;;;4.93;2.90;;;5.50;99.90;;;;;;5031797;28;20242;-90
2021/12/15 11:17:52;;;;;;;5.50;3.97;;;5.50;99.90;;;;;;5032514;28;20197;-90
2021/12/15 11:20:27;;;;;;;6.10;4.00;;;5.50;99.90;;;;;;5015817;28;20210;-90
2021/12/15 11:23:00;;;;;;;3.43;2.90;;;5.60;99.90;;;;;;5015827;28;20178;-90
2021/12/15 11:25:37;;;;;;;3.97;2.43;;;5.60;99.90;;;;;;5015859;28;20206;-90
2021/12/15 11:28:15;;;;;;;3.33;2.73;;;5.60;99.90;;;;;;5015789;28;20162;-90
2021/12/15 11:30:47;;;;;;;5.93;3.30;;;5.70;99.90;;;;;;5015535;28;20181;-90
2021/12/15 11:33:34;;;;;;;4.30;3.20;;;5.70;99.90;;;;;;5015774;28;20264;-90
2021/12/15 11:36:13;;;;;;;5.23;3.60;;;5.70;99.90;;;;;;5015878;28;20181;-91
2021/12/15 11:38:41;;;;;;;4.13;3.13;;;5.70;99.90;;;;;;5030632;28;20215;-90
2021/12/15 11:41:31;;;;;;;5.97;3.57;;;5.70;99.90;;;;;;5032436;28;20178;-91
2021/12/15 11:44:02;;;;;;;4.97;3.17;;;5.70;99.90;;;;;;5032812;28;20209;-90
2021/12/15 11:46:39;;;;;;;3.63;2.80;;;5.70;99.90;;;;;;5032187;28;20240;-90
2021/12/15 11:49:13;;;;;;;3.27;2.57;;;5.60;99.90;;;;;;5015654;28;20276;-90
2021/12/15 11:51:47;;;;;;;3.00;2.00;;;5.70;99.90;;;;;;5033657;28;20176;-90
2021/12/15 11:54:13;;;;;;;3.23;2.40;;;5.70;99.90;;;;;;5035651;28;20252;-90
2021/12/15 11:56:39;;;;;;;3.00;2.40;;;5.70;99.90;;;;;;5035745;28;20269;-90
2021/12/15 11:59:17;;;;;;;2.90;2.30;;;5.70;99.90;;;;;;5024826;28;20247;-90
2021/12/15 12:02:21;;;;;;;3.97;2.60;;;5.70;99.90;;;;;;5032067;28;20189;-90
2021/12/15 12:04:53;;;;;;;5.90;2.90;;;5.70;99.90;;;;;;5031742;28;20209;-90
2021/12/15 12:07:33;;;;;;;3.80;3.20;;;5.70;99.90;;;;;;5032213;28;20181;-90
2021/12/15 12:10:11;;;;;;;3.53;2.80;;;5.70;99.90;;;;;;5031935;28;20197;-90
2021/12/15 12:12:49;;;;;;;4.10;3.37;;;5.60;99.90;;;;;;5032029;28;20184;-90
2021/12/15 12:15:16;;;;;;;3.60;2.63;;;5.50;99.90;;;;;;5032111;28;20176;-90
2021/12/15 12:17:45;;;;;;;3.60;2.40;;;5.60;99.90;;;;;;5031575;28;20190;-90
2021/12/15 12:20:20;;;;;;;2.50;2.30;;;5.60;99.90;;;;;;5014924;28;20209;-90
2021/12/15 12:22:47;;;;;;;4.20;2.60;;;5.60;99.90;;;;;;5015634;28;20264;-90
2021/12/15 12:25:17;;;;;;;3.77;2.40;;;5.60;99.90;;;;;;5014889;28;20238;-90
2021/12/15 12:27:45;;;;;;;3.40;2.37;;;5.70;99.90;;;;;;5015574;28;20280;-90
2021/12/15 12:30:18;;;;;;;4.10;3.00;;;5.70;99.90;;;;;;5015139;28;20247;-90
2021/12/15 12:32:45;;;;;;;3.50;2.60;;;5.70;99.90;;;;;;5015219;28;20177;-90
2021/12/15 12:35:15;;;;;;;2.80;2.47;;;5.70;99.90;;;;;;5015030;28;20181;-90
2021/12/15 12:37:42;;;;;;;2.97;2.20;;;5.70;99.90;;;;;;5031238;28;20182;-90
2021/12/15 12:40:45;;;;;;;3.37;2.50;;;5.50;99.90;;;;;;5030693;28;20251;-90
2021/12/15 12:43:28;;;;;;;4.43;3.40;;;5.60;99.90;;;;;;5008490;28;20191;-90
2021/12/15 12:46:56;;;;;;;6.23;3.93;;;5.50;99.90;;;;;;5014770;28;20201;-91
2021/12/15 13:00:52;;;;;;;5.77;3.57;;;5.70;99.90;;;;;;5034071;28;20212;-90
2021/12/15 13:03:19;;;;;;;7.30;4.23;;;5.70;99.90;;;;;;5032492;28;20190;-91
2021/12/15 13:05:52;;;;;;;6.53;4.27;;;5.70;99.90;;;;;;5018133;28;20213;-91
2021/12/15 13:08:36;;;;;;;5.20;3.87;;;5.70;99.90;;;;;;5017658;28;20181;-91
2021/12/15 13:11:17;;;;;;;7.80;4.37;;;5.70;99.90;;;;;;5017135;28;20192;-90
2021/12/15 13:14:13;;;;;;;7.80;4.80;;;5.80;99.90;;;;;;5017855;28;20174;-91
2021/12/15 13:16:53;;;;;;;9.63;5.30;;;5.80;99.90;;;;;;5017816;28;20182;-90
2021/12/15 13:19:34;;;;;;;8.80;5.63;;;5.80;99.90;;;;;;5017714;28;20211;-90
2021/12/15 13:30:58;;;;;;;10.70;6.93;;;5.60;99.90;;;;;;5053460;28;20633;-90
2021/12/15 13:33:34;;;;;;;7.90;5.40;;;5.50;99.90;;;;;;5026965;28;20689;-91
2021/12/15 13:36:21;;;;;;;8.67;5.40;;;5.60;99.90;;;;;;5017012;28;20264;-91
2021/12/15 13:39:02;;;;;;;9.40;6.40;;;5.70;99.90;;;;;;5033679;28;20206;-90
2021/12/15 13:44:59;;;;;;;10.93;6.30;;;5.70;99.90;;;;;;5033333;28;20178;-91
2021/12/15 13:47:26;;;;;;;10.03;5.80;;;5.80;99.90;;;;;;5033814;28;20173;-91
2021/12/15 13:50:00;;;;;;;9.40;6.03;;;5.80;99.90;;;;;;5016814;28;20201;-91
2021/12/15 13:52:29;;;;;;;8.50;5.53;;;5.80;99.90;;;;;;5033474;28;20174;-91
2021/12/15 13:55:03;;;;;;;9.83;6.37;;;5.80;99.90;;;;;;5017149;28;20216;-91
2021/12/15 13:57:35;;;;;;;10.77;6.70;;;5.70;99.90;;;;;;5033340;28;20168;-91
2021/12/15 14:00:15;;;;;;;8.87;6.17;;;5.70;99.90;;;;;;5033182;28;20220;-91
2021/12/15 14:03:02;;;;;;;9.03;5.80;;;5.70;99.90;;;;;;5032915;28;20707;-91
2021/12/15 14:05:38;;;;;;;11.67;6.60;;;5.70;99.90;;;;;;5042643;28;20219;-90
2021/12/15 14:08:11;;;;;;;11.30;7.03;;;5.70;99.90;;;;;;5047760;28;20618;-91
2021/12/15 14:11:01;;;;;;;11.13;7.43;;;5.80;99.90;;;;;;5036594;28;20202;-91
2021/12/15 14:13:40;;;;;;;13.77;9.00;;;5.70;99.90;;;;;;5036249;28;20193;-91
2021/12/15 14:16:06;;;;;;;13.83;9.00;;;5.70;99.90;;;;;;5035566;28;20178;-91
2021/12/15 14:18:34;;;;;;;14.33;9.50;;;5.70;99.90;;;;;;5010352;28;20190;-91
2021/12/15 14:21:11;;;;;;;16.37;9.10;;;5.70;99.90;;;;;;5033314;28;20188;-91
2021/12/15 14:23:55;;;;;;;15.00;9.17;;;5.70;99.90;;;;;;5033251;28;20177;-91
2021/12/15 14:26:34;;;;;;;15.77;9.73;;;5.60;99.90;;;;;;5033362;28;20201;-91
2021/12/15 14:29:07;;;;;;;16.40;10.23;;;5.70;99.90;;;;;;5033564;28;20601;-91
2021/12/15 14:31:49;;;;;;;16.33;10.37;;;5.70;99.90;;;;;;5024540;28;20184;-94
2021/12/15 14:34:22;;;;;;;14.93;9.13;;;5.60;99.90;;;;;;5014242;28;20174;-91
2021/12/15 14:37:06;;;;;;;18.17;10.43;;;5.60;99.90;;;;;;4997170;28;20186;-91
2021/12/15 14:39:39;;;;;;;14.53;9.73;;;5.60;99.90;;;;;;5013997;28;20230;-91
2021/12/15 14:42:21;;;;;;;16.33;9.80;;;5.60;99.90;;;;;;5016008;28;20190;-92
2021/12/15 14:44:56;;;;;;;18.03;10.27;;;5.60;99.90;;;;;;5016079;28;20267;-91
2021/12/15 14:47:32;;;;;;;16.23;9.07;;;5.60;99.90;;;;;;5016184;28;20182;-91